createdAt,value
2023-01-06T00:00:06.092Z,99.99
2023-01-06T00:01:06.086Z,99.99
2023-01-06T00:02:06.067Z,99.99
2023-01-06T00:03:05.790Z,99.99
2023-01-06T00:04:06.164Z,99.99
2023-01-06T00:05:06.041Z,99.99
2023-01-06T00:06:06.007Z,99.99
2023-01-06T00:07:05.730Z,99.99
2023-01-06T00:08:05.980Z,99.99
2023-01-06T00:09:05.972Z,99.99
2023-01-06T00:10:05.688Z,99.99
2023-01-06T00:11:05.928Z,99.99
2023-01-06T00:12:05.657Z,99.99
2023-01-06T00:13:05.903Z,99.99
2023-01-06T00:14:05.638Z,99.99
2023-01-06T00:15:05.878Z,99.99
2023-01-06T00:16:05.677Z,99.99
2023-01-06T00:17:05.831Z,99.99
2023-01-06T00:18:05.680Z,99.99
2023-01-06T00:19:05.808Z,99.99
2023-01-06T00:20:05.913Z,99.99
2023-01-06T00:21:05.799Z,99.99
2023-01-06T00:22:05.770Z,99.99
2023-01-06T00:23:05.747Z,99.99
2023-01-06T00:24:05.468Z,99.99
2023-01-06T00:25:05.718Z,99.99
2023-01-06T00:26:05.691Z,99.99
2023-01-06T00:27:05.682Z,99.99
2023-01-06T00:28:05.664Z,99.99
2023-01-06T00:29:05.643Z,99.99
2023-01-06T00:30:05.649Z,99.99
2023-01-06T00:31:05.452Z,99.99
2023-01-06T00:32:05.401Z,99.99
2023-01-06T00:33:05.587Z,99.99
2023-01-06T00:34:05.695Z,99.99
2023-01-06T00:35:05.578Z,99.99
2023-01-06T00:36:05.678Z,99.99
2023-01-06T00:37:05.535Z,99.99
2023-01-06T00:38:05.265Z,99.99
2023-01-06T00:39:05.493Z,99.99
2023-01-06T00:40:05.223Z,99.99
2023-01-06T00:41:05.468Z,99.99
2023-01-06T00:42:05.458Z,99.99
2023-01-06T00:43:05.478Z,99.99
2023-01-06T00:44:05.438Z,99.99
2023-01-06T00:45:05.151Z,99.99
2023-01-06T00:46:05.568Z,99.99
2023-01-06T00:47:05.374Z,99.99
2023-01-06T00:48:05.369Z,99.99
2023-01-06T00:49:08.385Z,99.99
2023-01-06T00:50:05.319Z,99.99
2023-01-06T00:51:05.313Z,99.99
2023-01-06T00:52:05.423Z,99.99
2023-01-06T00:53:05.313Z,99.99
2023-01-06T00:54:05.286Z,99.99
2023-01-06T00:55:05.328Z,99.99
2023-01-06T00:56:05.233Z,99.99
2023-01-06T00:57:04.977Z,99.99
2023-01-06T00:58:04.955Z,99.99
2023-01-06T00:59:04.950Z,99.99
2023-01-06T01:00:05.194Z,99.99
2023-01-06T01:01:05.304Z,99.99
2023-01-06T01:02:05.548Z,99.99
2023-01-06T01:03:05.257Z,99.99
2023-01-06T01:04:05.114Z,99.99
2023-01-06T01:05:04.912Z,99.99
2023-01-06T01:06:04.840Z,99.99
2023-01-06T01:07:05.079Z,99.99
2023-01-06T01:08:05.176Z,99.99
2023-01-06T01:09:05.051Z,99.99
2023-01-06T01:10:04.803Z,99.99
2023-01-06T01:11:05.520Z,99.99
2023-01-06T01:12:05.009Z,99.99
2023-01-06T01:13:05.004Z,99.99
2023-01-06T01:14:04.978Z,99.99
2023-01-06T01:15:04.951Z,99.99
2023-01-06T01:16:04.823Z,99.99
2023-01-06T01:17:04.665Z,99.99
2023-01-06T01:18:04.901Z,99.99
2023-01-06T01:19:04.922Z,99.99
2023-01-06T01:20:04.881Z,99.99
2023-01-06T01:21:04.985Z,99.99
2023-01-06T01:22:04.890Z,99.99
2023-01-06T01:23:04.828Z,99.99
2023-01-06T01:24:04.934Z,99.99
2023-01-06T01:25:04.800Z,99.99
2023-01-06T01:26:04.785Z,99.99
2023-01-06T01:27:04.771Z,99.99
2023-01-06T01:28:04.497Z,99.99
2023-01-06T01:29:04.505Z,99.99
2023-01-06T01:30:04.468Z,99.99
2023-01-06T01:31:04.891Z,99.99
2023-01-06T01:32:04.697Z,99.99
2023-01-06T01:33:04.671Z,99.99
2023-01-06T01:34:04.695Z,99.99
2023-01-06T01:35:04.643Z,99.99
2023-01-06T01:36:04.373Z,99.99
2023-01-06T01:37:04.771Z,99.99
2023-01-06T01:38:04.597Z,99.99
2023-01-06T01:39:04.589Z,99.99
2023-01-06T01:40:04.685Z,99.99
2023-01-06T01:41:04.550Z,99.99
2023-01-06T01:42:04.569Z,99.99
2023-01-06T01:43:04.532Z,99.99
2023-01-06T01:44:04.523Z,99.99
2023-01-06T01:45:04.502Z,99.99
2023-01-06T01:46:04.267Z,99.99
2023-01-06T01:47:04.490Z,99.99
2023-01-06T01:48:04.467Z,99.99
2023-01-06T01:49:04.176Z,99.99
2023-01-06T01:50:04.420Z,99.99
2023-01-06T01:51:04.402Z,99.99
2023-01-06T01:52:04.383Z,99.99
2023-01-06T01:53:04.491Z,99.99
2023-01-06T01:54:04.363Z,99.99
2023-01-06T01:55:04.331Z,99.99
2023-01-06T01:56:04.470Z,99.99
2023-01-06T01:57:04.311Z,99.99
2023-01-06T01:58:04.310Z,99.99
2023-01-06T01:59:04.024Z,99.99
2023-01-06T02:00:04.261Z,99.99
2023-01-06T02:01:04.308Z,99.99
2023-01-06T02:02:04.570Z,99.99
2023-01-06T02:03:04.432Z,99.99
2023-01-06T02:04:03.943Z,99.99
2023-01-06T02:05:04.194Z,99.99
2023-01-06T02:06:04.178Z,99.99
2023-01-06T02:07:03.907Z,99.99
2023-01-06T02:08:04.144Z,99.99
2023-01-06T02:09:04.245Z,99.99
2023-01-06T02:10:03.874Z,99.99
2023-01-06T02:11:03.874Z,99.99
2023-01-06T02:12:04.270Z,99.99
2023-01-06T02:13:03.840Z,99.99
2023-01-06T02:14:04.054Z,99.99
2023-01-06T02:15:04.067Z,99.99
2023-01-06T02:16:04.255Z,99.99
2023-01-06T02:17:04.030Z,99.99
2023-01-06T02:18:03.750Z,99.99
2023-01-06T02:19:03.986Z,99.99
2023-01-06T02:20:03.969Z,99.99
2023-01-06T02:21:03.966Z,99.99
2023-01-06T02:22:03.947Z,99.99
2023-01-06T02:23:03.666Z,99.99
2023-01-06T02:24:03.907Z,99.99
2023-01-06T02:25:04.399Z,99.99
2023-01-06T02:26:03.893Z,99.99
2023-01-06T02:27:03.883Z,99.99
2023-01-06T02:28:03.956Z,99.99
2023-01-06T02:29:03.594Z,99.99
2023-01-06T02:30:03.808Z,99.99
2023-01-06T02:31:03.976Z,99.99
2023-01-06T02:32:03.551Z,99.99
2023-01-06T02:33:03.767Z,99.99
2023-01-06T02:34:03.765Z,99.99
2023-01-06T02:35:03.484Z,99.99
2023-01-06T02:36:03.468Z,99.99
2023-01-06T02:37:03.711Z,99.99
2023-01-06T02:38:03.691Z,99.99
2023-01-06T02:39:03.687Z,99.99
2023-01-06T02:40:03.667Z,99.99
2023-01-06T02:41:03.435Z,99.99
2023-01-06T02:42:03.644Z,99.99
2023-01-06T02:43:03.362Z,99.99
2023-01-06T02:44:03.733Z,99.99
2023-01-06T02:45:03.596Z,99.99
2023-01-06T02:46:03.643Z,99.99
2023-01-06T02:47:03.573Z,99.99
2023-01-06T02:48:03.557Z,99.99
2023-01-06T02:49:03.531Z,99.99
2023-01-06T02:50:03.535Z,99.99
2023-01-06T02:51:03.250Z,99.99
2023-01-06T02:52:03.489Z,99.99
2023-01-06T02:53:03.220Z,99.99
2023-01-06T02:54:03.456Z,99.99
2023-01-06T02:55:03.189Z,99.99
2023-01-06T02:56:03.424Z,99.99
2023-01-06T02:57:03.523Z,99.99
2023-01-06T02:58:03.159Z,99.99
2023-01-06T02:59:03.132Z,99.99
2023-01-06T03:00:03.493Z,99.99
2023-01-06T03:01:03.350Z,99.99
2023-01-06T03:02:03.669Z,99.99
2023-01-06T03:03:03.070Z,99.99
2023-01-06T03:04:03.047Z,99.99
2023-01-06T03:05:03.042Z,99.99
2023-01-06T03:06:03.273Z,99.99
2023-01-06T03:07:03.007Z,99.99
2023-01-06T03:08:03.249Z,99.99
2023-01-06T03:09:03.238Z,99.77
2023-01-06T03:10:03.225Z,99.99
2023-01-06T03:11:02.950Z,99.11
2023-01-06T03:12:02.942Z,99.21
2023-01-06T03:13:03.284Z,98.83
2023-01-06T03:14:02.911Z,98.16
2023-01-06T03:15:02.893Z,98.35
2023-01-06T03:16:03.447Z,98.54
2023-01-06T03:17:03.162Z,98.35
2023-01-06T03:18:03.099Z,98.45
2023-01-06T03:19:03.072Z,97.69
2023-01-06T03:20:02.819Z,97.6
2023-01-06T03:21:03.053Z,97.12
2023-01-06T03:22:03.053Z,96.83
2023-01-06T03:23:02.765Z,96.74
2023-01-06T03:24:02.748Z,96.36
2023-01-06T03:25:02.997Z,95.89
2023-01-06T03:26:02.972Z,95.6
2023-01-06T03:27:02.960Z,95.98
2023-01-06T03:28:02.950Z,95.6
2023-01-06T03:29:02.791Z,94.84
2023-01-06T03:30:02.653Z,95.22
2023-01-06T03:31:02.992Z,95.12
2023-01-06T03:32:03.004Z,95.22
2023-01-06T03:33:02.875Z,94.84
2023-01-06T03:49:59.192Z,93.08
2023-01-06T03:50:58.932Z,93.13
2023-01-06T03:51:58.918Z,93.41
2023-01-06T03:52:58.895Z,92.66
2023-01-06T03:53:58.876Z,92.66
2023-01-06T03:54:58.860Z,92.47
2023-01-06T03:55:58.845Z,92.09
2023-01-06T03:56:58.822Z,92.18
2023-01-06T03:57:58.810Z,91.61
2023-01-06T03:58:58.805Z,91.89
2023-01-06T03:59:58.540Z,91.04
2023-01-06T04:00:58.568Z,90.76
2023-01-06T04:01:58.832Z,90.85
2023-01-06T04:02:58.469Z,90.28
2023-01-06T04:03:58.888Z,90.28
2023-01-06T04:04:58.699Z,90
2023-01-06T04:05:58.943Z,90.14
2023-01-06T04:06:58.672Z,89.43
2023-01-06T04:07:58.653Z,89.53
2023-01-06T04:08:58.378Z,89.62
2023-01-06T04:09:58.619Z,89.09
2023-01-06T04:10:58.356Z,88.67
2023-01-06T04:11:58.591Z,88.81
2023-01-06T04:12:58.584Z,88.86
2023-01-06T04:13:58.303Z,88.34
2023-01-06T04:14:58.537Z,88.53
2023-01-06T04:15:58.454Z,87.82
2023-01-06T04:16:58.518Z,87.82
2023-01-06T04:17:58.259Z,87.67
2023-01-06T04:18:58.476Z,87.29
2023-01-06T04:19:58.475Z,87.1
2023-01-06T04:20:58.452Z,87.57
2023-01-06T04:21:58.688Z,87.57
2023-01-06T04:22:58.417Z,87.67
2023-01-06T04:23:58.423Z,87.48
2023-01-06T04:24:58.397Z,87.57
2023-01-06T04:25:58.135Z,87.67
2023-01-06T04:26:58.379Z,87.1
2023-01-06T04:27:58.348Z,87.38
2023-01-06T04:28:58.076Z,87.29
2023-01-06T04:29:58.337Z,86.63
2023-01-06T04:30:58.293Z,87.01
2023-01-06T04:31:58.149Z,86.91
2023-01-06T04:32:58.267Z,86.82
2023-01-06T04:33:58.252Z,86.43
2023-01-06T04:34:58.248Z,86.15
2023-01-06T04:35:58.245Z,86.05
2023-01-06T04:36:58.219Z,85.96
2023-01-06T04:37:58.441Z,85.3
2023-01-06T04:38:57.939Z,84.82
2023-01-06T04:39:58.180Z,84.72
2023-01-06T04:40:58.167Z,84.72
2023-01-06T04:41:58.134Z,84.72
2023-01-06T04:42:58.133Z,84.63
2023-01-06T04:44:00.262Z,84.25
2023-01-06T04:44:58.094Z,84.16
2023-01-06T04:45:58.225Z,84.06
2023-01-06T04:46:58.072Z,83.97
2023-01-06T04:47:58.048Z,83.78
2023-01-06T04:48:58.039Z,83.59
2023-01-06T04:49:58.016Z,83.87
2023-01-06T04:50:58.007Z,83.97
2023-01-06T04:51:57.987Z,84.06
2023-01-06T04:52:57.973Z,84.06
2023-01-06T04:53:58.202Z,83.97
2023-01-06T04:54:57.686Z,83.68
2023-01-06T04:55:57.926Z,84.44
2023-01-06T04:56:57.669Z,84.53
2023-01-06T04:57:57.911Z,84.63
2023-01-06T04:58:57.881Z,84.72
2023-01-06T04:59:57.865Z,85.11
2023-01-06T05:00:57.662Z,85.2
2023-01-06T05:01:57.622Z,85.2
2023-01-06T05:02:57.822Z,85.2
2023-01-06T05:03:57.932Z,85.11
2023-01-06T05:04:57.806Z,85.11
2023-01-06T05:05:57.531Z,85.11
2023-01-06T05:06:57.511Z,85.2
2023-01-06T05:07:57.745Z,84.82
2023-01-06T05:08:57.486Z,84.82
2023-01-06T05:09:57.954Z,84.44
2023-01-06T05:10:57.711Z,84.63
2023-01-06T05:11:57.693Z,84.63
2023-01-06T05:12:57.683Z,84.82
2023-01-06T05:13:57.420Z,84.44
2023-01-06T05:14:57.420Z,84.53
2023-01-06T05:15:57.639Z,84.63
2023-01-06T05:16:57.620Z,84.63
2023-01-06T05:17:57.610Z,85.11
2023-01-06T05:18:57.591Z,85.01
2023-01-06T05:19:57.331Z,84.91
2023-01-06T05:20:57.586Z,84.63
2023-01-06T05:21:57.552Z,84.72
2023-01-06T05:22:57.538Z,84.72
2023-01-06T05:23:57.523Z,84.72
2023-01-06T05:24:57.252Z,84.53
2023-01-06T05:25:57.745Z,84.72
2023-01-06T05:26:57.551Z,84.53
2023-01-06T05:27:57.461Z,84.44
2023-01-06T05:28:57.466Z,84.72
2023-01-06T05:29:57.170Z,84.58
2023-01-06T05:30:57.158Z,84.77
2023-01-06T05:31:57.606Z,85.05
2023-01-06T05:32:57.140Z,85.15
2023-01-06T05:33:57.164Z,85.34
2023-01-06T05:34:57.379Z,85.24
2023-01-06T05:35:57.349Z,85.43
2023-01-06T05:36:57.327Z,84.95
2023-01-06T05:37:57.334Z,86
2023-01-06T05:38:57.391Z,85.72
2023-01-06T05:39:57.286Z,85.62
2023-01-06T05:40:57.281Z,85.72
2023-01-06T05:41:57.499Z,86
2023-01-06T05:42:56.999Z,86.19
2023-01-06T05:43:57.228Z,86.76
2023-01-06T05:44:57.215Z,86.57
2023-01-06T05:45:57.365Z,87.14
2023-01-06T05:46:57.217Z,86.86
2023-01-06T05:47:56.932Z,87.05
2023-01-06T05:48:57.189Z,86.86
2023-01-06T05:49:57.164Z,86.76
2023-01-06T05:50:57.128Z,87.43
2023-01-06T05:51:57.120Z,87.34
2023-01-06T05:52:58.745Z,87.62
2023-01-06T05:53:57.084Z,87.71
2023-01-06T05:54:57.088Z,86.86
2023-01-06T05:55:58.079Z,87.05
2023-01-06T05:56:57.815Z,87.05
2023-01-06T05:57:58.288Z,87.05
2023-01-06T05:58:57.771Z,86.86
2023-01-06T05:59:58.022Z,87.24
2023-01-06T06:00:58.003Z,87.52
2023-01-06T06:01:58.102Z,87.9
2023-01-06T06:02:57.975Z,87.52
2023-01-06T06:03:58.149Z,88.47
2023-01-06T06:04:57.960Z,88
2023-01-06T06:05:57.938Z,87.71
2023-01-06T06:06:57.914Z,87.71
2023-01-06T06:07:57.645Z,87.24
2023-01-06T06:08:57.912Z,87.52
2023-01-06T06:09:57.871Z,87.81
2023-01-06T06:10:57.856Z,87.81
2023-01-06T06:11:57.849Z,87.9
2023-01-06T06:12:57.835Z,87.71
2023-01-06T06:13:58.088Z,87.81
2023-01-06T06:14:57.566Z,87.9
2023-01-06T06:15:57.804Z,87.71
2023-01-06T06:16:57.523Z,87.52
2023-01-06T06:17:57.511Z,88
2023-01-06T06:18:57.744Z,88.09
2023-01-06T06:19:57.491Z,87.43
2023-01-06T06:20:57.723Z,88
2023-01-06T06:21:57.729Z,87.9
2023-01-06T06:22:57.428Z,87.9
2023-01-06T06:23:57.419Z,87.34
2023-01-06T06:24:57.662Z,87.81
2023-01-06T06:25:57.397Z,88
2023-01-06T06:26:57.648Z,87.81
2023-01-06T06:27:57.362Z,88.19
2023-01-06T06:28:57.598Z,88.38
2023-01-06T06:29:57.846Z,88.47
2023-01-06T06:30:58.220Z,88.57
2023-01-06T06:31:57.587Z,88.19
2023-01-06T06:32:57.303Z,87.9
2023-01-06T06:33:57.289Z,87.9
2023-01-06T06:34:57.535Z,87.52
2023-01-06T06:35:57.508Z,86.95
2023-01-06T06:36:57.490Z,86.47
2023-01-06T06:37:57.468Z,86.1
2023-01-06T06:38:57.494Z,86.29
2023-01-06T06:39:57.211Z,85.72
2023-01-06T06:40:57.557Z,86.29
2023-01-06T06:41:57.445Z,85.81
2023-01-06T06:42:57.151Z,85.81
2023-01-06T06:43:57.385Z,86
2023-01-06T06:44:57.396Z,85.62
2023-01-06T06:45:57.761Z,85.91
2023-01-06T06:46:57.348Z,85.62
2023-01-06T06:47:57.344Z,85.62
2023-01-06T06:48:57.327Z,86.19
2023-01-06T06:49:57.303Z,86
2023-01-06T06:50:57.041Z,86.19
2023-01-06T06:51:58.063Z,85.91
2023-01-06T06:52:57.260Z,85.81
2023-01-06T06:53:57.245Z,86.1
2023-01-06T06:54:57.240Z,86
2023-01-06T06:55:57.218Z,85.91
2023-01-06T06:56:57.225Z,86.1
2023-01-06T06:57:57.200Z,86.19
2023-01-06T06:58:57.207Z,86.29
2023-01-06T06:59:57.159Z,86.19
2023-01-06T07:00:57.178Z,86.19
2023-01-06T07:01:57.646Z,86.38
2023-01-06T07:02:57.147Z,85.81
2023-01-06T07:03:57.113Z,86.1
2023-01-06T07:04:57.142Z,86
2023-01-06T07:05:57.086Z,85.81
2023-01-06T07:06:57.061Z,86.19
2023-01-06T07:07:57.048Z,85.91
2023-01-06T07:08:57.043Z,85.81
2023-01-06T07:09:57.033Z,85.53
2023-01-06T07:10:57.019Z,85.62
2023-01-06T07:11:56.996Z,85.91
2023-01-06T07:12:56.720Z,85.62
2023-01-06T07:13:56.971Z,85.81
2023-01-06T07:14:56.955Z,85.72
2023-01-06T07:15:57.142Z,85.81
2023-01-06T07:16:56.923Z,85.62
2023-01-06T07:17:57.061Z,85.24
2023-01-06T07:18:56.893Z,85.24
2023-01-06T07:19:56.622Z,85.24
2023-01-06T07:20:56.618Z,85.24
2023-01-06T07:21:56.626Z,85.34
2023-01-06T07:22:56.700Z,85.34
2023-01-06T07:23:56.684Z,85.15
2023-01-06T07:24:56.667Z,85.43
2023-01-06T07:25:56.973Z,85.15
2023-01-06T07:26:56.638Z,85.05
2023-01-06T07:27:56.885Z,85.34
2023-01-06T07:28:56.873Z,85.15
2023-01-06T07:29:56.886Z,85.43
2023-01-06T07:30:57.020Z,85.24
2023-01-06T07:31:56.568Z,85.24
2023-01-06T07:32:56.815Z,85.28
2023-01-06T07:33:57.032Z,85.43
2023-01-06T07:34:56.523Z,86
2023-01-06T07:35:56.778Z,86.1
2023-01-06T07:36:56.505Z,85.57
2023-01-06T07:37:58.305Z,86.14
2023-01-06T07:38:56.728Z,85.72
2023-01-06T07:39:56.712Z,85.76
2023-01-06T07:40:56.441Z,85.76
2023-01-06T07:41:56.679Z,85.86
2023-01-06T07:42:56.659Z,85.66
2023-01-06T07:43:56.652Z,86.14
2023-01-06T07:44:56.394Z,86.52
2023-01-06T07:45:56.703Z,86.33
2023-01-06T07:46:56.605Z,86.71
2023-01-06T07:47:56.599Z,86.24
2023-01-06T07:48:56.586Z,86.24
2023-01-06T07:49:56.827Z,86.61
2023-01-06T07:50:56.719Z,86.76
2023-01-06T07:51:56.543Z,86.52
2023-01-06T07:52:56.580Z,86.33
2023-01-06T07:53:56.514Z,85.95
2023-01-06T07:54:56.498Z,85.95
2023-01-06T07:55:56.501Z,85.86
2023-01-06T07:56:56.476Z,85.76
2023-01-06T07:57:56.471Z,85.76
2023-01-06T07:58:56.444Z,85.76
2023-01-06T07:59:56.435Z,85.76
2023-01-06T08:00:56.428Z,85.86
2023-01-06T08:01:56.650Z,86.05
2023-01-06T08:02:56.614Z,86.05
2023-01-06T08:03:56.119Z,86.24
2023-01-06T08:04:57.118Z,86.52
2023-01-06T08:05:56.588Z,87.09
2023-01-06T08:06:56.349Z,87.09
2023-01-06T08:07:56.331Z,87.19
2023-01-06T08:08:56.310Z,86.99
2023-01-06T08:09:56.290Z,86.9
2023-01-06T08:10:56.276Z,87.47
2023-01-06T08:11:56.257Z,87.76
2023-01-06T08:12:55.999Z,87.57
2023-01-06T08:13:55.976Z,87.66
2023-01-06T08:14:55.972Z,87.28
2023-01-06T08:15:56.310Z,87.66
2023-01-06T08:16:56.203Z,87.85
2023-01-06T08:17:56.176Z,88.04
2023-01-06T08:18:56.173Z,88.13
2023-01-06T08:19:55.898Z,87.76
2023-01-06T08:20:56.180Z,87.95
2023-01-06T08:21:56.356Z,87.76
2023-01-06T08:22:56.116Z,87.57
2023-01-06T08:23:55.835Z,87.85
2023-01-06T08:24:55.826Z,87.47
2023-01-06T08:25:55.814Z,87.28
2023-01-06T08:26:56.058Z,87.09
2023-01-06T08:27:56.042Z,86.99
2023-01-06T08:28:55.780Z,87.47
2023-01-06T08:29:56.013Z,87.38
2023-01-06T08:30:57.449Z,87.76
2023-01-06T08:32:10.587Z,87.95
2023-01-06T08:32:55.977Z,88.9
2023-01-06T08:33:55.787Z,89.28
2023-01-06T08:34:55.954Z,90.52
2023-01-06T08:35:55.925Z,90.52
2023-01-06T08:36:55.929Z,90.7
2023-01-06T08:37:56.139Z,91.37
2023-01-06T08:38:55.893Z,91.56
2023-01-06T08:39:55.876Z,92.22
2023-01-06T08:40:55.867Z,92.94
2023-01-06T08:41:55.856Z,93.6
2023-01-06T08:42:55.850Z,93.7
2023-01-06T08:43:55.820Z,95.41
2023-01-06T08:44:56.064Z,96.26
2023-01-06T08:45:55.800Z,96.74
2023-01-06T08:46:55.787Z,97.22
2023-01-06T08:47:55.798Z,97.69
2023-01-06T08:48:55.758Z,97.22
2023-01-06T08:49:55.741Z,97.03
2023-01-06T08:50:55.730Z,96.65
2023-01-06T08:51:55.461Z,98.65
2023-01-06T08:52:55.708Z,99.99
2023-01-06T08:53:55.930Z,99.99
2023-01-06T08:54:55.679Z,99.99
2023-01-06T08:55:55.657Z,99.99
2023-01-06T08:56:55.400Z,99.99
2023-01-06T08:57:57.414Z,99.99
2023-01-06T08:58:55.636Z,99.99
2023-01-06T08:59:55.604Z,99.99
2023-01-06T09:00:55.602Z,99.99
2023-01-06T09:01:55.836Z,99.99
2023-01-06T09:02:55.571Z,99.99
2023-01-06T09:03:55.560Z,99.99
2023-01-06T09:04:55.642Z,99.99
2023-01-06T09:05:55.689Z,99.99
2023-01-06T09:06:56.767Z,99.99
2023-01-06T09:07:55.652Z,99.99
2023-01-06T09:08:55.632Z,99.99
2023-01-06T09:09:55.778Z,99.99
2023-01-06T09:10:55.630Z,99.99
2023-01-06T09:11:55.641Z,99.99
2023-01-06T09:12:55.336Z,99.99
2023-01-06T09:13:55.577Z,99.99
2023-01-06T09:14:55.324Z,99.99
2023-01-06T09:15:55.655Z,99.99
2023-01-06T09:16:55.539Z,99.99
2023-01-06T09:17:55.272Z,99.99
2023-01-06T09:18:55.255Z,99.99
2023-01-06T09:19:55.547Z,99.99
2023-01-06T09:20:55.480Z,99.99
2023-01-06T09:21:55.473Z,99.99
2023-01-06T09:22:55.452Z,99.99
2023-01-06T09:23:55.536Z,99.99
2023-01-06T09:24:55.432Z,99.99
2023-01-06T09:25:55.676Z,99.99
2023-01-06T09:26:55.405Z,99.99
2023-01-06T09:27:55.169Z,99.99
2023-01-06T09:28:55.123Z,99.99
2023-01-06T09:29:55.122Z,99.99
2023-01-06T09:30:55.427Z,99.99
2023-01-06T09:31:55.343Z,99.99
2023-01-06T09:32:55.079Z,99.99
2023-01-06T09:33:55.063Z,99.99
2023-01-06T09:34:55.052Z,99.99
2023-01-06T09:35:55.293Z,99.99
2023-01-06T09:36:55.281Z,99.99
2023-01-06T09:37:55.267Z,99.99
2023-01-06T09:38:55.013Z,99.99
2023-01-06T09:39:54.983Z,99.99
2023-01-06T09:40:55.233Z,99.99
2023-01-06T09:41:55.478Z,99.99
2023-01-06T09:42:55.201Z,99.99
2023-01-06T09:43:55.215Z,99.99
2023-01-06T09:44:55.227Z,99.99
2023-01-06T09:45:55.187Z,99.99
2023-01-06T09:46:55.291Z,99.99
2023-01-06T09:47:55.148Z,99.99
2023-01-06T09:48:55.139Z,99.99
2023-01-06T09:49:55.127Z,99.99
2023-01-06T09:50:55.134Z,99.99
2023-01-06T09:51:55.085Z,99.99
2023-01-06T09:52:55.080Z,99.99
2023-01-06T09:53:55.072Z,99.99
2023-01-06T09:54:54.800Z,99.99
2023-01-06T09:55:55.042Z,99.99
2023-01-06T09:56:55.040Z,99.99
2023-01-06T09:57:56.996Z,99.99
2023-01-06T09:58:54.751Z,99.99
2023-01-06T09:59:54.991Z,99.99
2023-01-06T10:00:54.731Z,99.99
2023-01-06T10:01:55.176Z,99.99
2023-01-06T10:02:54.949Z,99.99
2023-01-06T10:03:55.055Z,99.99
2023-01-06T10:04:54.943Z,99.99
2023-01-06T10:05:54.712Z,99.99
2023-01-06T10:06:54.918Z,99.99
2023-01-06T10:07:54.890Z,99.99
2023-01-06T10:08:54.624Z,99.99
2023-01-06T10:09:54.863Z,99.99
2023-01-06T10:10:54.858Z,99.99
2023-01-06T10:11:54.599Z,99.99
2023-01-06T10:12:54.833Z,99.99
2023-01-06T10:13:55.059Z,99.99
2023-01-06T10:14:54.814Z,99.99
2023-01-06T10:15:54.948Z,99.99
2023-01-06T10:16:54.794Z,99.99
2023-01-06T10:17:54.509Z,99.99
2023-01-06T10:18:54.762Z,99.99
2023-01-06T10:19:54.965Z,99.99
2023-01-06T10:20:54.745Z,99.99
2023-01-06T10:21:54.717Z,99.99
2023-01-06T10:22:54.746Z,99.99
2023-01-06T10:23:54.456Z,99.99
2023-01-06T10:24:54.517Z,99.99
2023-01-06T10:25:54.410Z,99.99
2023-01-06T10:26:54.653Z,99.99
2023-01-06T10:27:54.629Z,99.99
2023-01-06T10:28:54.649Z,99.99
2023-01-06T10:29:54.872Z,99.99
2023-01-06T10:30:54.350Z,99.99
2023-01-06T10:31:54.343Z,99.99
2023-01-06T10:32:54.315Z,99.99
2023-01-06T10:33:54.608Z,99.99
2023-01-06T10:34:54.546Z,99.99
2023-01-06T10:35:54.576Z,99.99
2023-01-06T10:36:54.531Z,99.99
2023-01-06T10:37:54.513Z,99.99
2023-01-06T10:38:54.492Z,99.99
2023-01-06T10:39:54.489Z,99.99
2023-01-06T10:40:54.218Z,99.99
2023-01-06T10:41:54.216Z,99.99
2023-01-06T10:42:54.447Z,99.99
2023-01-06T10:43:54.454Z,99.99
2023-01-06T10:44:54.421Z,99.99
2023-01-06T10:45:54.622Z,99.99
2023-01-06T10:46:54.734Z,99.99
2023-01-06T10:47:54.400Z,99.99
2023-01-06T10:48:54.379Z,99.99
2023-01-06T10:49:54.364Z,99.99
2023-01-06T10:50:56.299Z,99.99
2023-01-06T10:51:54.490Z,99.99
2023-01-06T10:52:54.312Z,99.99
2023-01-06T10:53:54.309Z,99.99
2023-01-06T10:54:54.315Z,99.99
2023-01-06T10:55:54.306Z,99.99
2023-01-06T10:56:54.032Z,99.99
2023-01-06T10:57:54.262Z,99.99
2023-01-06T10:58:54.253Z,99.99
2023-01-06T10:59:54.246Z,99.99
2023-01-06T11:00:54.183Z,99.99
2023-01-06T11:01:54.859Z,99.99
2023-01-06T11:02:54.037Z,99.99
2023-01-06T11:03:54.195Z,99.99
2023-01-06T11:04:53.921Z,99.99
2023-01-06T11:05:54.167Z,99.99
2023-01-06T11:06:53.905Z,99.99
2023-01-06T11:07:54.261Z,99.99
2023-01-06T11:08:54.127Z,99.99
2023-01-06T11:09:54.114Z,99.99
2023-01-06T11:10:54.104Z,99.99
2023-01-06T11:11:54.074Z,99.99
2023-01-06T11:12:54.064Z,99.99
2023-01-06T11:13:53.810Z,99.99
2023-01-06T11:14:54.038Z,99.99
2023-01-06T11:15:53.880Z,99.99
2023-01-06T11:16:54.022Z,99.99
2023-01-06T11:17:54.243Z,99.99
2023-01-06T11:18:53.987Z,99.99
2023-01-06T11:19:53.984Z,99.99
2023-01-06T11:20:53.987Z,99.99
2023-01-06T11:21:53.953Z,99.99
2023-01-06T11:22:53.948Z,99.99
2023-01-06T11:23:53.934Z,99.99
2023-01-06T11:24:53.927Z,99.99
2023-01-06T11:25:53.648Z,99.99
2023-01-06T11:26:53.661Z,99.99
2023-01-06T11:27:53.874Z,99.99
2023-01-06T11:28:53.603Z,99.99
2023-01-06T11:29:53.870Z,99.99
2023-01-06T11:30:53.839Z,99.99
2023-01-06T11:31:53.924Z,99.99
2023-01-06T11:32:53.809Z,99.99
2023-01-06T11:33:54.055Z,99.99
2023-01-06T11:34:53.829Z,99.99
2023-01-06T11:35:53.793Z,99.99
2023-01-06T11:36:53.502Z,99.99
2023-01-06T11:37:53.551Z,99.99
2023-01-06T11:38:53.804Z,99.99
2023-01-06T11:40:11.377Z,99.99
2023-01-06T11:40:53.527Z,99.99
2023-01-06T11:41:53.771Z,99.99
2023-01-06T11:42:53.742Z,99.99
2023-01-06T11:43:55.326Z,99.99
2023-01-06T11:44:53.736Z,99.99
2023-01-06T11:45:53.570Z,99.99
2023-01-06T11:46:53.694Z,99.99
2023-01-06T11:47:53.413Z,99.99
2023-01-06T11:48:53.403Z,99.99
2023-01-06T11:49:53.896Z,99.99
2023-01-06T11:50:53.633Z,99.99
2023-01-06T11:51:53.379Z,99.99
2023-01-06T11:52:53.605Z,99.99
2023-01-06T11:53:53.340Z,99.99
2023-01-06T11:54:53.321Z,99.99
2023-01-06T11:55:53.321Z,99.99
2023-01-06T11:56:53.295Z,99.99
2023-01-06T11:57:53.535Z,99.99
2023-01-06T11:58:53.269Z,99.99
2023-01-06T11:59:53.534Z,99.99
2023-01-06T12:00:53.250Z,99.99
2023-01-06T12:01:53.769Z,99.99
2023-01-06T12:02:53.523Z,99.99
2023-01-06T12:03:53.458Z,99.99
2023-01-06T12:04:53.452Z,99.99
2023-01-06T12:05:53.686Z,99.99
2023-01-06T12:06:53.422Z,99.99
2023-01-06T12:07:53.407Z,99.99
2023-01-06T12:08:53.393Z,99.99
2023-01-06T12:09:53.373Z,99.99
2023-01-06T12:10:53.365Z,99.99
2023-01-06T12:11:53.419Z,99.99
2023-01-06T12:12:53.377Z,99.99
2023-01-06T12:14:23.415Z,99.99
2023-01-06T12:14:53.317Z,99.99
2023-01-06T12:15:53.304Z,99.99
2023-01-06T12:16:53.655Z,99.99
2023-01-06T12:17:53.049Z,99.99
2023-01-06T12:18:53.271Z,99.99
2023-01-06T12:19:53.249Z,99.99
2023-01-06T12:20:53.253Z,99.99
2023-01-06T12:21:53.459Z,99.99
2023-01-06T12:22:53.223Z,99.99
2023-01-06T12:23:52.964Z,99.99
2023-01-06T12:24:53.198Z,99.99
2023-01-06T12:25:53.170Z,99.99
2023-01-06T12:26:53.154Z,99.99
2023-01-06T12:27:52.890Z,99.99
2023-01-06T12:28:52.872Z,99.99
2023-01-06T12:29:53.122Z,99.99
2023-01-06T12:30:53.020Z,99.99
2023-01-06T12:31:52.836Z,99.99
2023-01-06T12:32:53.078Z,99.99
2023-01-06T12:33:52.809Z,99.99
2023-01-06T12:34:52.796Z,99.99
2023-01-06T12:35:53.068Z,99.99
2023-01-06T12:36:53.039Z,99.99
2023-01-06T12:37:53.250Z,99.99
2023-01-06T12:38:52.997Z,99.99
2023-01-06T12:39:52.991Z,99.99
2023-01-06T12:40:52.999Z,99.99
2023-01-06T12:41:53.010Z,99.99
2023-01-06T12:42:52.950Z,99.99
2023-01-06T12:43:52.934Z,99.99
2023-01-06T12:44:52.691Z,99.99
2023-01-06T12:45:59.950Z,99.99
2023-01-06T12:46:52.885Z,99.99
2023-01-06T12:47:54.260Z,99.99
2023-01-06T12:48:52.874Z,99.99
2023-01-06T12:49:52.860Z,99.99
2023-01-06T12:50:52.581Z,99.99
2023-01-06T12:51:52.830Z,99.99
2023-01-06T12:52:52.815Z,99.99
2023-01-06T12:53:53.469Z,99.99
2023-01-06T12:54:52.789Z,99.99
2023-01-06T12:55:52.785Z,99.99
2023-01-06T12:56:52.774Z,99.99
2023-01-06T12:57:52.502Z,99.99
2023-01-06T12:58:52.754Z,99.99
2023-01-06T12:59:52.743Z,99.99
2023-01-06T13:00:52.881Z,99.99
2023-01-06T13:01:52.970Z,99.99
2023-01-06T13:02:52.443Z,99.99
2023-01-06T13:03:52.560Z,99.99
2023-01-06T13:04:52.400Z,99.99
2023-01-06T13:05:52.387Z,99.99
2023-01-06T13:06:52.631Z,99.99
2023-01-06T13:07:52.637Z,99.99
2023-01-06T13:08:52.610Z,99.99
2023-01-06T13:09:52.840Z,99.99